sensor_id;sensor_type;location;lat;lon;timestamp;pressure;altitude;pressure_sealevel;temperature;humidity
35023;BME280;21214;44.912;8.204;2023-09-19T00:00:36;99398.78;;;18.81;100.00
35023;BME280;21214;44.912;8.204;2023-09-19T00:03:02;99402.41;;;18.61;100.00
35023;BME280;21214;44.912;8.204;2023-09-19T00:05:28;99395.41;;;18.60;100.00
35023;BME280;21214;44.912;8.204;2023-09-19T00:07:54;99392.53;;;18.68;100.00
35023;BME280;21214;44.912;8.204;2023-09-19T00:10:20;99394.66;;;18.72;100.00
35023;BME280;21214;44.912;8.204;2023-09-19T00:12:47;99395.84;;;18.70;100.00
35023;BME280;21214;44.912;8.204;2023-09-19T00:15:12;99388.44;;;18.65;100.00
35023;BME280;21214;44.912;8.204;2023-09-19T00:17:38;99392.53;;;18.61;100.00
35023;BME280;21214;44.912;8.204;2023-09-19T00:20:05;99386.66;;;18.45;100.00
35023;BME280;21214;44.912;8.204;2023-09-19T00:22:40;99394.66;;;18.45;100.00
35023;BME280;21214;44.912;8.204;2023-09-19T00:25:07;99393.84;;;18.44;100.00
35023;BME280;21214;44.912;8.204;2023-09-19T00:27:32;99386.25;;;18.48;100.00
35023;BME280;21214;44.912;8.204;2023-09-19T00:30:00;99383.06;;;18.59;100.00
35023;BME280;21214;44.912;8.204;2023-09-19T00:32:26;99381.03;;;18.61;100.00
35023;BME280;21214;44.912;8.204;2023-09-19T00:34:57;99388.00;;;18.62;100.00
35023;BME280;21214;44.912;8.204;2023-09-19T00:37:22;99390.44;;;18.57;100.00
35023;BME280;21214;44.912;8.204;2023-09-19T00:39:48;99389.53;;;18.50;100.00
35023;BME280;21214;44.912;8.204;2023-09-19T00:42:20;99379.91;;;18.49;100.00
35023;BME280;21214;44.912;8.204;2023-09-19T00:44:47;99394.88;;;18.50;100.00
35023;BME280;21214;44.912;8.204;2023-09-19T00:47:12;99393.88;;;18.51;100.00
35023;BME280;21214;44.912;8.204;2023-09-19T00:49:46;99385.72;;;18.59;100.00
35023;BME280;21214;44.912;8.204;2023-09-19T00:52:18;99376.50;;;18.68;100.00
35023;BME280;21214;44.912;8.204;2023-09-19T00:54:47;99386.75;;;18.58;100.00
35023;BME280;21214;44.912;8.204;2023-09-19T00:57:13;99394.50;;;18.53;100.00
35023;BME280;21214;44.912;8.204;2023-09-19T00:59:40;99397.25;;;18.59;100.00
35023;BME280;21214;44.912;8.204;2023-09-19T01:02:06;99393.75;;;18.59;100.00
35023;BME280;21214;44.912;8.204;2023-09-19T01:04:31;99395.00;;;18.63;100.00
35023;BME280;21214;44.912;8.204;2023-09-19T01:06:57;99397.44;;;18.58;100.00
35023;BME280;21214;44.912;8.204;2023-09-19T01:09:23;99388.34;;;18.52;100.00
35023;BME280;21214;44.912;8.204;2023-09-19T01:11:49;99402.78;;;18.58;100.00
35023;BME280;21214;44.912;8.204;2023-09-19T01:14:34;99408.34;;;18.63;100.00
35023;BME280;21214;44.912;8.204;2023-09-19T01:17:04;99413.09;;;18.67;100.00
35023;BME280;21214;44.912;8.204;2023-09-19T01:19:58;99403.69;;;18.71;100.00
35023;BME280;21214;44.912;8.204;2023-09-19T01:22:29;99411.03;;;18.63;100.00
35023;BME280;21214;44.912;8.204;2023-09-19T01:30:13;99408.97;;;18.58;100.00
35023;BME280;21214;44.912;8.204;2023-09-19T01:32:39;99402.41;;;18.61;100.00
35023;BME280;21214;44.912;8.204;2023-09-19T01:35:06;99395.84;;;18.70;100.00
35023;BME280;21214;44.912;8.204;2023-09-19T01:37:33;99415.53;;;18.62;100.00
35023;BME280;21214;44.912;8.204;2023-09-19T01:39:59;99411.47;;;18.66;100.00
35023;BME280;21214;44.912;8.204;2023-09-19T01:42:35;99419.28;;;18.68;100.00
35023;BME280;21214;44.912;8.204;2023-09-19T01:45:03;99415.50;;;18.56;100.00
35023;BME280;21214;44.912;8.204;2023-09-19T01:47:32;99410.16;;;18.56;100.00
35023;BME280;21214;44.912;8.204;2023-09-19T01:52:57;99414.19;;;18.45;100.00
35023;BME280;21214;44.912;8.204;2023-09-19T01:55:26;99410.47;;;18.39;100.00
35023;BME280;21214;44.912;8.204;2023-09-19T01:58:07;99403.94;;;18.49;100.00
35023;BME280;21214;44.912;8.204;2023-09-19T02:00:34;99405.19;;;18.53;100.00
35023;BME280;21214;44.912;8.204;2023-09-19T02:03:01;99397.97;;;18.47;100.00
35023;BME280;21214;44.912;8.204;2023-09-19T02:05:28;99409.28;;;18.49;100.00
35023;BME280;21214;44.912;8.204;2023-09-19T02:07:53;99407.69;;;18.54;100.00
35023;BME280;21214;44.912;8.204;2023-09-19T02:10:19;99408.53;;;18.55;100.00
35023;BME280;21214;44.912;8.204;2023-09-19T02:12:45;99414.72;;;18.55;100.00
35023;BME280;21214;44.912;8.204;2023-09-19T02:15:12;99415.50;;;18.56;100.00
35023;BME280;21214;44.912;8.204;2023-09-19T02:17:41;99411.22;;;18.55;100.00
35023;BME280;21214;44.912;8.204;2023-09-19T02:20:07;99412.19;;;18.54;100.00
35023;BME280;21214;44.912;8.204;2023-09-19T02:22:35;99414.31;;;18.58;100.00
35023;BME280;21214;44.912;8.204;2023-09-19T02:25:00;99415.13;;;18.59;100.00
35023;BME280;21214;44.912;8.204;2023-09-19T02:27:27;99414.72;;;18.62;100.00
35023;BME280;21214;44.912;8.204;2023-09-19T02:29:52;99412.31;;;18.67;100.00
35023;BME280;21214;44.912;8.204;2023-09-19T02:32:18;99411.91;;;18.70;100.00
35023;BME280;21214;44.912;8.204;2023-09-19T02:34:43;99415.22;;;18.72;100.00
35023;BME280;21214;44.912;8.204;2023-09-19T02:37:09;99410.69;;;18.72;100.00
35023;BME280;21214;44.912;8.204;2023-09-19T02:39:35;99411.91;;;18.70;100.00
35023;BME280;21214;44.912;8.204;2023-09-19T02:42:01;99417.25;;;18.70;100.00
35023;BME280;21214;44.912;8.204;2023-09-19T02:44:26;99414.56;;;18.70;100.00
35023;BME280;21214;44.912;8.204;2023-09-19T02:46:52;99415.81;;;18.74;100.00
35023;BME280;21214;44.912;8.204;2023-09-19T02:49:18;99414.38;;;18.71;100.00
35023;BME280;21214;44.912;8.204;2023-09-19T02:51:43;99395.84;;;18.70;100.00
35023;BME280;21214;44.912;8.204;2023-09-19T02:54:09;99396.50;;;18.72;100.00
35023;BME280;21214;44.912;8.204;2023-09-19T02:56:35;99396.91;;;18.75;100.00
35023;BME280;21214;44.912;8.204;2023-09-19T02:59:00;99400.03;;;18.79;100.00
35023;BME280;21214;44.912;8.204;2023-09-19T03:01:26;99397.78;;;18.83;100.00
35023;BME280;21214;44.912;8.204;2023-09-19T03:03:53;99396.31;;;18.80;100.00
35023;BME280;21214;44.912;8.204;2023-09-19T03:06:20;99393.03;;;18.78;100.00
35023;BME280;21214;44.912;8.204;2023-09-19T03:08:46;99395.47;;;18.79;100.00
35023;BME280;21214;44.912;8.204;2023-09-19T03:11:12;99387.25;;;18.74;100.00
35023;BME280;21214;44.912;8.204;2023-09-19T03:13:42;99388.03;;;18.68;100.00
35023;BME280;21214;44.912;8.204;2023-09-19T03:16:08;99392.97;;;18.65;100.00
35023;BME280;21214;44.912;8.204;2023-09-19T03:18:34;99397.91;;;18.68;100.00
35023;BME280;21214;44.912;8.204;2023-09-19T03:20:59;99401.63;;;18.73;100.00
35023;BME280;21214;44.912;8.204;2023-09-19T03:23:26;99396.91;;;18.75;100.00
35023;BME280;21214;44.912;8.204;2023-09-19T03:25:52;99392.59;;;18.74;100.00
35023;BME280;21214;44.912;8.204;2023-09-19T03:28:17;99382.50;;;18.70;100.00
35023;BME280;21214;44.912;8.204;2023-09-19T03:30:44;99389.28;;;18.66;100.00
35023;BME280;21214;44.912;8.204;2023-09-19T03:33:09;99392.09;;;18.58;100.00
35023;BME280;21214;44.912;8.204;2023-09-19T03:35:38;99401.13;;;18.57;100.00
35023;BME280;21214;44.912;8.204;2023-09-19T03:38:05;99391.19;;;18.51;100.00
35023;BME280;21214;44.912;8.204;2023-09-19T03:40:30;99395.78;;;18.57;100.00
35023;BME280;21214;44.912;8.204;2023-09-19T03:42:56;99400.53;;;18.55;100.00
35023;BME280;21214;44.912;8.204;2023-09-19T03:45:21;99400.59;;;18.40;100.00
35023;BME280;21214;44.912;8.204;2023-09-19T03:47:50;99404.75;;;18.42;100.00
35023;BME280;21214;44.912;8.204;2023-09-19T03:50:18;99400.19;;;18.36;100.00
35023;BME280;21214;44.912;8.204;2023-09-19T03:52:44;99397.50;;;18.36;100.00
35023;BME280;21214;44.912;8.204;2023-09-19T03:55:09;99398.94;;;18.39;100.00
35023;BME280;21214;44.912;8.204;2023-09-19T03:57:37;99394.84;;;18.36;100.00
35023;BME280;21214;44.912;8.204;2023-09-19T04:00:02;99393.97;;;18.29;100.00
35023;BME280;21214;44.912;8.204;2023-09-19T04:02:38;99391.88;;;18.25;100.00
35023;BME280;21214;44.912;8.204;2023-09-19T04:05:03;99393.09;;;18.22;100.00
35023;BME280;21214;44.912;8.204;2023-09-19T04:07:29;99400.31;;;18.28;100.00
35023;BME280;21214;44.912;8.204;2023-09-19T04:09:55;99397.59;;;18.22;100.00
35023;BME280;21214;44.912;8.204;2023-09-19T04:12:20;99395.63;;;18.30;100.00
35023;BME280;21214;44.912;8.204;2023-09-19T04:14:46;99396.88;;;18.34;100.00
35023;BME280;21214;44.912;8.204;2023-09-19T04:17:11;99391.16;;;18.37;100.00
35023;BME280;21214;44.912;8.204;2023-09-19T04:19:37;99391.94;;;18.38;100.00
35023;BME280;21214;44.912;8.204;2023-09-19T04:22:04;99392.78;;;18.38;100.00
35023;BME280;21214;44.912;8.204;2023-09-19T04:24:30;99398.72;;;18.34;100.00
35023;BME280;21214;44.912;8.204;2023-09-19T04:26:56;99395.66;;;18.37;100.00
35023;BME280;21214;44.912;8.204;2023-09-19T04:29:24;99389.91;;;18.40;100.00
35023;BME280;21214;44.912;8.204;2023-09-19T04:31:49;99394.06;;;18.42;100.00
35023;BME280;21214;44.912;8.204;2023-09-19T04:34:15;99389.13;;;18.46;100.00
35023;BME280;21214;44.912;8.204;2023-09-19T04:36:41;99393.25;;;18.49;100.00
35023;BME280;21214;44.912;8.204;2023-09-19T04:39:07;99392.41;;;18.41;100.00
35023;BME280;21214;44.912;8.204;2023-09-19T04:41:33;99396.03;;;18.34;100.00
35023;BME280;21214;44.912;8.204;2023-09-19T04:43:59;99401.78;;;18.31;100.00
35023;BME280;21214;44.912;8.204;2023-09-19T04:46:24;99404.88;;;18.34;100.00
35023;BME280;21214;44.912;8.204;2023-09-19T04:48:50;99407.56;;;18.34;100.00
35023;BME280;21214;44.912;8.204;2023-09-19T04:51:15;99406.91;;;18.32;100.00
35023;BME280;21214;44.912;8.204;2023-09-19T04:53:41;99420.72;;;18.36;100.00
35023;BME280;21214;44.912;8.204;2023-09-19T04:56:07;99420.28;;;18.32;100.00
35023;BME280;21214;44.912;8.204;2023-09-19T04:58:33;99416.59;;;18.33;100.00
35023;BME280;21214;44.912;8.204;2023-09-19T05:00:59;99424.66;;;18.40;100.00
35023;BME280;21214;44.912;8.204;2023-09-19T05:03:28;99429.63;;;18.43;100.00
35023;BME280;21214;44.912;8.204;2023-09-19T05:05:53;99423.66;;;18.48;100.00
35023;BME280;21214;44.912;8.204;2023-09-19T05:08:19;99424.06;;;18.45;100.00
35023;BME280;21214;44.912;8.204;2023-09-19T05:10:44;99426.94;;;18.50;100.00
35023;BME280;21214;44.912;8.204;2023-09-19T05:13:10;99434.41;;;18.54;100.00
35023;BME280;21214;44.912;8.204;2023-09-19T05:15:37;99434.03;;;18.57;100.00
35023;BME280;21214;44.912;8.204;2023-09-19T05:18:02;99441.84;;;18.59;100.00
35023;BME280;21214;44.912;8.204;2023-09-19T05:20:28;99444.25;;;18.54;100.00
35023;BME280;21214;44.912;8.204;2023-09-19T05:25:26;99444.25;;;18.54;100.00
35023;BME280;21214;44.912;8.204;2023-09-19T05:27:55;99447.56;;;18.56;100.00
35023;BME280;21214;44.912;8.204;2023-09-19T05:30:21;99448.72;;;18.47;100.00
35023;BME280;21214;44.912;8.204;2023-09-19T05:32:47;99453.59;;;18.36;100.00
35023;BME280;21214;44.912;8.204;2023-09-19T05:35:12;99452.97;;;18.34;100.00
35023;BME280;21214;44.912;8.204;2023-09-19T05:37:38;99458.44;;;18.26;100.00
35023;BME280;21214;44.912;8.204;2023-09-19T05:40:04;99458.84;;;18.23;100.00
35023;BME280;21214;44.912;8.204;2023-09-19T05:42:37;99464.19;;;18.23;100.00
35023;BME280;21214;44.912;8.204;2023-09-19T05:45:04;99469.59;;;18.30;100.00
35023;BME280;21214;44.912;8.204;2023-09-19T05:47:31;99470.41;;;18.30;100.00
35023;BME280;21214;44.912;8.204;2023-09-19T05:49:57;99476.13;;;18.27;100.00
35023;BME280;21214;44.912;8.204;2023-09-19T05:52:22;99474.88;;;18.23;100.00
35023;BME280;21214;44.912;8.204;2023-09-19T05:54:47;99481.22;;;18.22;100.00
35023;BME280;21214;44.912;8.204;2023-09-19T05:57:14;99490.25;;;18.21;100.00
35023;BME280;21214;44.912;8.204;2023-09-19T05:59:40;99487.63;;;18.28;100.00
35023;BME280;21214;44.912;8.204;2023-09-19T06:02:08;99481.09;;;18.30;100.00
35023;BME280;21214;44.912;8.204;2023-09-19T06:04:35;99477.19;;;18.33;100.00
35023;BME280;21214;44.912;8.204;2023-09-19T06:07:00;99482.75;;;18.31;100.00
35023;BME280;21214;44.912;8.204;2023-09-19T06:09:25;99487.81;;;18.26;100.00
35023;BME280;21214;44.912;8.204;2023-09-19T06:11:53;99486.81;;;18.27;100.00
35023;BME280;21214;44.912;8.204;2023-09-19T06:14:18;99491.38;;;18.33;100.00
35023;BME280;21214;44.912;8.204;2023-09-19T06:16:44;99498.00;;;18.37;100.00
35023;BME280;21214;44.912;8.204;2023-09-19T06:19:10;99498.44;;;18.41;100.00
35023;BME280;21214;44.912;8.204;2023-09-19T06:21:36;99492.25;;;18.40;100.00
35023;BME280;21214;44.912;8.204;2023-09-19T06:24:01;99498.38;;;18.34;100.00
35023;BME280;21214;44.912;8.204;2023-09-19T06:26:27;99498.38;;;18.34;100.00
35023;BME280;21214;44.912;8.204;2023-09-19T06:28:52;99495.91;;;18.33;100.00
35023;BME280;21214;44.912;8.204;2023-09-19T06:31:18;99491.38;;;18.33;100.00
35023;BME280;21214;44.912;8.204;2023-09-19T06:33:43;99491.19;;;18.35;100.00
35023;BME280;21214;44.912;8.204;2023-09-19T06:36:08;99488.53;;;18.35;100.00
35023;BME280;21214;44.912;8.204;2023-09-19T06:38:34;99494.09;;;18.40;100.00
35023;BME280;21214;44.912;8.204;2023-09-19T06:41:01;99492.50;;;18.46;100.00
35023;BME280;21214;44.912;8.204;2023-09-19T06:43:30;99488.16;;;18.45;100.00
35023;BME280;21214;44.912;8.204;2023-09-19T06:45:56;99494.41;;;18.52;100.00
35023;BME280;21214;44.912;8.204;2023-09-19T06:48:21;99493.56;;;18.51;100.00
35023;BME280;21214;44.912;8.204;2023-09-19T06:50:46;99484.72;;;18.51;100.00
35023;BME280;21214;44.912;8.204;2023-09-19T06:53:13;99481.31;;;18.57;100.00
35023;BME280;21214;44.912;8.204;2023-09-19T06:55:38;99492.00;;;18.57;100.00
35023;BME280;21214;44.912;8.204;2023-09-19T06:58:04;99487.09;;;18.60;100.00
35023;BME280;21214;44.912;8.204;2023-09-19T07:00:31;99487.94;;;18.61;100.00
35023;BME280;21214;44.912;8.204;2023-09-19T07:03:04;99494.91;;;18.62;100.00
35023;BME280;21214;44.912;8.204;2023-09-19T07:05:33;99482.38;;;18.62;100.00
35023;BME280;21214;44.912;8.204;2023-09-19T07:08:01;99495.94;;;18.61;100.00
35023;BME280;21214;44.912;8.204;2023-09-19T07:10:29;99486.09;;;18.61;100.00
35023;BME280;21214;44.912;8.204;2023-09-19T07:15:21;99494.91;;;18.62;100.00
35023;BME280;21214;44.912;8.204;2023-09-19T07:17:48;99508.47;;;18.60;100.00
35023;BME280;21214;44.912;8.204;2023-09-19T07:20:13;99509.69;;;18.58;100.00
35023;BME280;21214;44.912;8.204;2023-09-19T07:22:41;99515.91;;;18.65;100.00
35023;BME280;21214;44.912;8.204;2023-09-19T07:25:06;99517.38;;;18.74;100.00
35023;BME280;21214;44.912;8.204;2023-09-19T07:27:32;99522.50;;;18.69;100.00
35023;BME280;21214;44.912;8.204;2023-09-19T07:29:57;99524.94;;;18.64;100.00
35023;BME280;21214;44.912;8.204;2023-09-19T07:32:24;99521.63;;;18.62;100.00
35023;BME280;21214;44.912;8.204;2023-09-19T07:34:49;99529.63;;;18.62;100.00
35023;BME280;21214;44.912;8.204;2023-09-19T07:37:15;99526.59;;;18.65;100.00
35023;BME280;21214;44.912;8.204;2023-09-19T07:39:41;99531.16;;;18.71;100.00
35023;BME280;21214;44.912;8.204;2023-09-19T07:42:07;99530.38;;;18.77;100.00
35023;BME280;21214;44.912;8.204;2023-09-19T07:44:32;99530.63;;;18.82;100.00
35023;BME280;21214;44.912;8.204;2023-09-19T07:46:58;99533.50;;;18.87;100.00
35023;BME280;21214;44.912;8.204;2023-09-19T07:49:23;99533.75;;;18.92;100.00
35023;BME280;21214;44.912;8.204;2023-09-19T07:51:48;99533.38;;;18.95;100.00
35023;BME280;21214;44.912;8.204;2023-09-19T07:54:14;99541.41;;;18.95;100.00
35023;BME280;21214;44.912;8.204;2023-09-19T07:56:40;99547.34;;;18.97;100.00
35023;BME280;21214;44.912;8.204;2023-09-19T07:59:05;99547.34;;;18.97;100.00
35023;BME280;21214;44.912;8.204;2023-09-19T08:01:30;99541.63;;;19.00;100.00
35023;BME280;21214;44.912;8.204;2023-09-19T08:03:56;99541.63;;;19.00;100.00
35023;BME280;21214;44.912;8.204;2023-09-19T08:06:22;99539.59;;;19.02;100.00
35023;BME280;21214;44.912;8.204;2023-09-19T08:08:50;99543.69;;;19.05;100.00
35023;BME280;21214;44.912;8.204;2023-09-19T08:11:15;99547.84;;;19.07;100.00
35023;BME280;21214;44.912;8.204;2023-09-19T08:13:46;99557.25;;;19.03;100.00
35023;BME280;21214;44.912;8.204;2023-09-19T08:16:14;99550.47;;;19.01;100.00
35023;BME280;21214;44.912;8.204;2023-09-19T08:18:47;99551.53;;;19.06;100.00
35023;BME280;21214;44.912;8.204;2023-09-19T08:21:13;99558.97;;;19.11;100.00
35023;BME280;21214;44.912;8.204;2023-09-19T08:23:40;99568.88;;;19.17;100.00
35023;BME280;21214;44.912;8.204;2023-09-19T08:26:07;99554.91;;;19.21;100.00
35023;BME280;21214;44.912;8.204;2023-09-19T08:28:33;99563.97;;;19.27;100.00
35023;BME280;21214;44.912;8.204;2023-09-19T08:31:04;99565.44;;;19.30;100.00
35023;BME280;21214;44.912;8.204;2023-09-19T08:33:33;99570.53;;;19.18;100.00
35023;BME280;21214;44.912;8.204;2023-09-19T08:35:59;99577.44;;;19.06;100.00
35023;BME280;21214;44.912;8.204;2023-09-19T08:38:25;99580.31;;;19.04;100.00
35023;BME280;21214;44.912;8.204;2023-09-19T08:40:57;99582.00;;;19.12;100.00
35023;BME280;21214;44.912;8.204;2023-09-19T08:43:24;99588.66;;;19.22;100.00
35023;BME280;21214;44.912;8.204;2023-09-19T08:45:50;99584.53;;;19.27;100.00
35023;BME280;21214;44.912;8.204;2023-09-19T08:48:27;99590.53;;;19.29;100.00
35023;BME280;21214;44.912;8.204;2023-09-19T08:51:06;99595.06;;;19.28;100.00
35023;BME280;21214;44.912;8.204;2023-09-19T08:56:11;99593.09;;;19.43;100.00
35023;BME280;21214;44.912;8.204;2023-09-19T08:58:46;99595.81;;;19.50;100.00
35023;BME280;21214;44.912;8.204;2023-09-19T09:01:14;99599.13;;;19.52;100.00
35023;BME280;21214;44.912;8.204;2023-09-19T09:03:40;99596.25;;;19.53;100.00
35023;BME280;21214;44.912;8.204;2023-09-19T09:06:08;99597.13;;;19.60;100.00
35023;BME280;21214;44.912;8.204;2023-09-19T09:08:38;99592.19;;;19.64;100.00
35023;BME280;21214;44.912;8.204;2023-09-19T09:11:04;99593.03;;;19.71;100.00
35023;BME280;21214;44.912;8.204;2023-09-19T09:13:34;99588.94;;;19.82;100.00
35023;BME280;21214;44.912;8.204;2023-09-19T09:16:00;99586.50;;;19.93;100.00
35023;BME280;21214;44.912;8.204;2023-09-19T09:18:25;99585.69;;;19.99;100.00
35023;BME280;21214;44.912;8.204;2023-09-19T09:20:51;99581.41;;;20.12;100.00
35023;BME280;21214;44.912;8.204;2023-09-19T09:23:16;99592.75;;;20.14;100.00
35023;BME280;21214;44.912;8.204;2023-09-19T09:25:52;99589.47;;;20.25;100.00
35023;BME280;21214;44.912;8.204;2023-09-19T09:28:25;99593.22;;;20.37;100.00
35023;BME280;21214;44.912;8.204;2023-09-19T09:30:51;99594.59;;;20.26;100.00
35023;BME280;21214;44.912;8.204;2023-09-19T09:33:17;99594.38;;;20.21;100.00
35023;BME280;21214;44.912;8.204;2023-09-19T09:35:52;99591.56;;;20.36;100.00
35023;BME280;21214;44.912;8.204;2023-09-19T09:38:19;99591.56;;;20.49;100.00
35023;BME280;21214;44.912;8.204;2023-09-19T09:40:48;99582.72;;;20.55;100.00
35023;BME280;21214;44.912;8.204;2023-09-19T09:43:35;99583.31;;;20.57;100.00
35023;BME280;21214;44.912;8.204;2023-09-19T09:46:12;99591.97;;;20.59;100.00
35023;BME280;21214;44.912;8.204;2023-09-19T09:49:00;99587.03;;;20.63;100.00
35023;BME280;21214;44.912;8.204;2023-09-19T09:51:51;99581.25;;;20.79;100.00
35023;BME280;21214;44.912;8.204;2023-09-19T09:54:23;99580.81;;;20.89;100.00
35023;BME280;21214;44.912;8.204;2023-09-19T09:56:55;99581.63;;;21.02;100.00
35023;BME280;21214;44.912;8.204;2023-09-19T10:02:08;99572.72;;;21.28;100.00
35023;BME280;21214;44.912;8.204;2023-09-19T10:04:38;99565.91;;;21.32;100.00
35023;BME280;21214;44.912;8.204;2023-09-19T10:07:30;99572.72;;;21.28;100.00
35023;BME280;21214;44.912;8.204;2023-09-19T10:10:01;99566.34;;;21.16;100.00
35023;BME280;21214;44.912;8.204;2023-09-19T10:12:48;99577.06;;;21.09;100.00
35023;BME280;21214;44.912;8.204;2023-09-19T10:15:17;99572.13;;;21.06;100.00
35023;BME280;21214;44.912;8.204;2023-09-19T10:17:45;99575.00;;;21.24;100.00
35023;BME280;21214;44.912;8.204;2023-09-19T10:20:17;99571.66;;;21.36;100.00
35023;BME280;21214;44.912;8.204;2023-09-19T10:22:48;99578.25;;;21.40;100.00
35023;BME280;21214;44.912;8.204;2023-09-19T10:25:24;99573.69;;;21.40;100.00
35023;BME280;21214;44.912;8.204;2023-09-19T10:27:50;99567.94;;;21.43;100.00
35023;BME280;21214;44.912;8.204;2023-09-19T10:30:18;99569.13;;;21.47;100.00
35023;BME280;21214;44.912;8.204;2023-09-19T10:32:45;99569.13;;;21.47;100.00
35023;BME280;21214;44.912;8.204;2023-09-19T10:35:12;99575.91;;;21.56;100.00
35023;BME280;21214;44.912;8.204;2023-09-19T10:37:39;99577.75;;;21.62;100.00
35023;BME280;21214;44.912;8.204;2023-09-19T10:40:06;99573.44;;;21.61;100.00
35023;BME280;21214;44.912;8.204;2023-09-19T10:42:33;99568.28;;;21.53;100.00
35023;BME280;21214;44.912;8.204;2023-09-19T10:45:03;99572.38;;;21.56;100.00
35023;BME280;21214;44.912;8.204;2023-09-19T10:47:32;99566.22;;;21.55;100.00
35023;BME280;21214;44.912;8.204;2023-09-19T10:49:57;99562.91;;;21.53;100.00
35023;BME280;21214;44.912;8.204;2023-09-19T10:52:23;99559.78;;;21.56;100.00
35023;BME280;21214;44.912;8.204;2023-09-19T10:54:50;99553.38;;;21.57;100.00
35023;BME280;21214;44.912;8.204;2023-09-19T10:57:22;99551.31;;;21.59;100.00
35023;BME280;21214;44.912;8.204;2023-09-19T11:00:05;99550.06;;;21.62;100.00
35023;BME280;21214;44.912;8.204;2023-09-19T11:05:34;99556.63;;;21.73;100.00
35023;BME280;21214;44.912;8.204;2023-09-19T11:07:59;99550.41;;;21.79;100.00
35023;BME280;21214;44.912;8.204;2023-09-19T11:10:49;99544.59;;;21.82;100.00
35023;BME280;21214;44.912;8.204;2023-09-19T11:26:44;99524.41;;;22.35;100.00
35023;BME280;21214;44.912;8.204;2023-09-19T11:29:26;99527.56;;;22.51;100.00
35023;BME280;21214;44.912;8.204;2023-09-19T11:31:52;99524.09;;;22.68;100.00
35023;BME280;21214;44.912;8.204;2023-09-19T11:39:38;99503.75;;;23.15;100.00
35023;BME280;21214;44.912;8.204;2023-09-19T11:44:49;99502.56;;;23.48;100.00
35023;BME280;21214;44.912;8.204;2023-09-19T11:47:17;99502.97;;;23.63;100.00
35023;BME280;21214;44.912;8.204;2023-09-19T11:49:43;99498.00;;;23.78;100.00
35023;BME280;21214;44.912;8.204;2023-09-19T11:52:09;99497.88;;;23.73;100.00
35023;BME280;21214;44.912;8.204;2023-09-19T11:54:37;99496.72;;;23.92;100.00
35023;BME280;21214;44.912;8.204;2023-09-19T11:57:06;99494.56;;;24.13;100.00
35023;BME280;21214;44.912;8.204;2023-09-19T11:59:33;99497.19;;;24.31;100.00
35023;BME280;21214;44.912;8.204;2023-09-19T12:02:03;99501.91;;;24.47;100.00
35023;BME280;21214;44.912;8.204;2023-09-19T12:04:41;99501.19;;;24.63;100.00
35023;BME280;21214;44.912;8.204;2023-09-19T12:07:11;99502.25;;;24.74;100.00
35023;BME280;21214;44.912;8.204;2023-09-19T12:09:43;99498.03;;;24.90;100.00
35023;BME280;21214;44.912;8.204;2023-09-19T12:12:13;99485.91;;;25.04;100.00
35023;BME280;21214;44.912;8.204;2023-09-19T12:14:47;99485.41;;;25.18;100.00
35023;BME280;21214;44.912;8.204;2023-09-19T12:17:13;99480.69;;;25.37;100.00
35023;BME280;21214;44.912;8.204;2023-09-19T12:19:39;99477.78;;;25.55;100.00
35023;BME280;21214;44.912;8.204;2023-09-19T12:22:04;99467.34;;;25.76;100.00
35023;BME280;21214;44.912;8.204;2023-09-19T12:24:30;99457.88;;;25.90;100.00
35023;BME280;21214;44.912;8.204;2023-09-19T12:26:59;99462.63;;;25.99;100.00
35023;BME280;21214;44.912;8.204;2023-09-19T12:29:26;99453.97;;;26.14;100.00
35023;BME280;21214;44.912;8.204;2023-09-19T12:31:53;99451.53;;;26.29;100.00
35023;BME280;21214;44.912;8.204;2023-09-19T12:34:31;99451.88;;;26.33;100.00
35023;BME280;21214;44.912;8.204;2023-09-19T12:37:04;99453.47;;;26.34;100.00
35023;BME280;21214;44.912;8.204;2023-09-19T12:39:48;99453.38;;;26.45;100.00
35023;BME280;21214;44.912;8.204;2023-09-19T12:42:15;99449.13;;;26.49;100.00
35023;BME280;21214;44.912;8.204;2023-09-19T12:44:41;99460.16;;;26.65;100.00
35023;BME280;21214;44.912;8.204;2023-09-19T12:47:09;99456.03;;;26.79;100.00
35023;BME280;21214;44.912;8.204;2023-09-19T12:49:35;99451.91;;;26.93;100.00
35023;BME280;21214;44.912;8.204;2023-09-19T12:52:00;99449.41;;;27.08;100.00
35023;BME280;21214;44.912;8.204;2023-09-19T12:54:37;99455.75;;;27.19;100.00
35023;BME280;21214;44.912;8.204;2023-09-19T12:57:04;99443.28;;;26.96;100.00
35023;BME280;21214;44.912;8.204;2023-09-19T12:59:30;99453.34;;;27.22;100.00
35023;BME280;21214;44.912;8.204;2023-09-19T13:02:03;99447.94;;;27.22;100.00
35023;BME280;21214;44.912;8.204;2023-09-19T13:04:29;99439.94;;;27.11;100.00
35023;BME280;21214;44.912;8.204;2023-09-19T13:06:55;99439.34;;;27.04;100.00
35023;BME280;21214;44.912;8.204;2023-09-19T13:09:25;99439.19;;;27.15;100.00
35023;BME280;21214;44.912;8.204;2023-09-19T13:11:59;99445.22;;;27.22;100.00
35023;BME280;21214;44.912;8.204;2023-09-19T13:14:26;99434.78;;;27.09;100.00
35023;BME280;21214;44.912;8.204;2023-09-19T13:17:03;99445.09;;;27.12;100.00
35023;BME280;21214;44.912;8.204;2023-09-19T13:19:44;99434.25;;;27.34;100.00
35023;BME280;21214;44.912;8.204;2023-09-19T13:22:39;99431.50;;;27.51;100.00
35023;BME280;21214;44.912;8.204;2023-09-19T13:25:08;99423.28;;;27.73;100.00
35023;BME280;21214;44.912;8.204;2023-09-19T13:27:41;99414.91;;;27.74;100.00
35023;BME280;21214;44.912;8.204;2023-09-19T13:30:07;99418.84;;;27.93;100.00
35023;BME280;21214;44.912;8.204;2023-09-19T13:32:32;99425.94;;;27.99;100.00
35023;BME280;21214;44.912;8.204;2023-09-19T13:34:58;99421.81;;;27.92;100.00
35023;BME280;21214;44.912;8.204;2023-09-19T13:37:23;99418.41;;;28.06;100.00